Time;durP1;ratioP1;P1;durP2;ratioP2;P2;SDS_P1;SDS_P2;PMS_P1;PMS_P2;Temp;Humidity;BMP_temperature;BMP_pressure;BME280_temperature;BME280_humidity;BME280_pressure;Samples;Min_cycle;Max_cycle;Signal;HPM_P1;HPM_P2
2023/04/08 00:01:12;;;;;;;10.32;7.90;;;7.10;99.90;;;;;;4991894;28;20057;-55
2023/04/08 00:03:58;;;;;;;10.30;7.93;;;7.00;99.90;;;;;;5007772;28;20018;-55
2023/04/08 00:06:44;;;;;;;9.43;7.93;;;6.90;99.90;;;;;;5011263;28;20112;-55
2023/04/08 00:09:30;;;;;;;10.75;8.43;;;6.90;99.90;;;;;;4996159;28;20105;-51
2023/04/08 00:12:16;;;;;;;10.45;8.38;;;6.80;99.90;;;;;;5009915;28;20022;-49
2023/04/08 00:15:02;;;;;;;13.63;9.35;;;6.70;99.90;;;;;;5011377;28;20022;-55
2023/04/08 00:17:48;;;;;;;9.32;7.35;;;6.80;99.90;;;;;;5010902;28;20028;-54
2023/04/08 00:20:34;;;;;;;9.60;7.30;;;6.80;99.90;;;;;;5009903;28;20576;-53
2023/04/08 00:23:20;;;;;;;8.95;7.00;;;6.90;99.90;;;;;;5014234;28;20112;-52
2023/04/08 00:26:06;;;;;;;7.35;6.55;;;6.70;99.90;;;;;;5014096;28;20049;-53
2023/04/08 00:28:52;;;;;;;8.90;7.50;;;6.70;99.90;;;;;;5014190;28;20029;-52
2023/04/08 00:31:38;;;;;;;9.05;7.50;;;6.60;99.90;;;;;;5014442;28;20022;-53
2023/04/08 00:34:24;;;;;;;10.20;7.88;;;6.50;99.90;;;;;;5014750;28;20042;-56
2023/04/08 00:37:10;;;;;;;9.48;7.38;;;6.60;99.90;;;;;;5015157;28;20057;-54
2023/04/08 00:39:56;;;;;;;10.35;7.22;;;6.60;99.90;;;;;;5014620;28;20037;-52
2023/04/08 00:42:42;;;;;;;8.00;6.68;;;6.60;99.90;;;;;;5000042;28;20061;-51
2023/04/08 00:45:28;;;;;;;9.77;6.57;;;6.70;99.90;;;;;;5013427;28;20034;-50
2023/04/08 00:48:14;;;;;;;8.15;6.90;;;6.70;99.90;;;;;;5012809;28;20033;-55
2023/04/08 00:51:00;;;;;;;8.27;6.78;;;6.80;99.90;;;;;;5012995;28;20105;-51
2023/04/08 00:53:46;;;;;;;14.70;9.35;;;6.70;99.90;;;;;;4999622;28;20026;-54
2023/04/08 00:56:33;;;;;;;14.93;9.45;;;6.70;99.90;;;;;;5014159;28;20487;-55
2023/04/08 00:59:19;;;;;;;10.98;7.13;;;6.60;99.90;;;;;;5010257;28;20065;-50
2023/04/08 01:02:20;;;;;;;8.93;6.68;;;6.60;99.90;;;;;;4980805;28;20030;-54
2023/04/08 01:05:14;;;;;;;9.25;7.53;;;6.50;99.90;;;;;;5007205;28;20073;-49
2023/04/08 01:08:04;;;;;;;8.65;6.63;;;6.50;99.90;;;;;;5013741;28;20033;-48
2023/04/08 01:10:53;;;;;;;9.05;7.20;;;6.40;99.90;;;;;;5010019;28;20026;-51
2023/04/08 01:13:41;;;;;;;8.98;7.57;;;6.40;99.90;;;;;;5013488;28;20018;-49
2023/04/08 01:16:27;;;;;;;8.43;6.88;;;6.40;99.90;;;;;;5012535;28;20036;-49
2023/04/08 01:19:31;;;;;;;9.07;6.78;;;6.40;99.90;;;;;;5014085;28;20042;-53
2023/04/08 01:22:53;;;;;;;9.82;7.60;;;6.50;99.90;;;;;;5012662;28;20113;-52
2023/04/08 01:25:44;;;;;;;9.05;7.15;;;6.40;99.90;;;;;;4957913;28;20030;-51
2023/04/08 01:28:30;;;;;;;8.25;6.97;;;6.60;99.90;;;;;;5012294;28;20142;-49
2023/04/08 01:31:17;;;;;;;9.43;7.38;;;6.60;99.90;;;;;;5004737;28;20041;-54
2023/04/08 01:34:05;;;;;;;9.30;7.53;;;6.50;99.90;;;;;;5014839;28;20033;-48
2023/04/08 01:36:52;;;;;;;9.10;7.45;;;6.40;99.90;;;;;;4999127;28;20033;-50
2023/04/08 01:39:40;;;;;;;9.50;7.82;;;6.40;99.90;;;;;;5014371;28;20100;-50
2023/04/08 01:42:27;;;;;;;9.75;7.82;;;6.50;99.90;;;;;;5013794;28;20520;-52
2023/04/08 01:45:14;;;;;;;9.93;7.93;;;6.50;99.90;;;;;;4998780;28;20120;-50
2023/04/08 01:48:02;;;;;;;9.90;7.82;;;6.50;99.90;;;;;;5013328;28;20123;-52
2023/04/08 01:50:50;;;;;;;10.00;8.10;;;6.50;99.90;;;;;;5013873;28;20025;-50
2023/04/08 01:53:36;;;;;;;8.38;7.10;;;6.50;99.90;;;;;;5013455;28;20026;-52
2023/04/08 01:56:24;;;;;;;10.15;8.20;;;6.50;99.90;;;;;;5013379;28;20132;-50
2023/04/08 01:59:16;;;;;;;8.88;7.97;;;6.50;99.90;;;;;;5012442;28;20080;-49
2023/04/08 02:02:05;;;;;;;10.98;8.48;;;6.50;99.90;;;;;;5013137;28;20026;-55
2023/04/08 02:04:53;;;;;;;11.48;8.15;;;6.60;99.90;;;;;;4993364;28;20035;-54
2023/04/08 02:07:39;;;;;;;10.32;8.23;;;6.50;99.90;;;;;;4998992;28;20037;-49
2023/04/08 02:10:25;;;;;;;11.32;8.82;;;6.60;99.90;;;;;;5013688;28;20108;-53
2023/04/08 02:13:11;;;;;;;10.23;8.32;;;6.60;99.90;;;;;;5012078;28;20384;-52
2023/04/08 02:16:05;;;;;;;12.73;9.00;;;6.40;99.90;;;;;;5013575;28;20085;-54
2023/04/08 02:19:04;;;;;;;12.82;9.45;;;6.40;99.90;;;;;;5013264;28;20129;-56
2023/04/08 02:22:01;;;;;;;9.52;8.15;;;6.30;99.90;;;;;;5012195;28;20108;-56
2023/04/08 02:24:48;;;;;;;11.60;8.80;;;6.30;99.90;;;;;;4994083;28;20057;-54
2023/04/08 02:27:36;;;;;;;10.93;8.50;;;6.20;99.90;;;;;;4995947;28;20573;-51
2023/04/08 02:30:26;;;;;;;11.07;8.18;;;6.20;99.90;;;;;;5013026;28;20081;-52
2023/04/08 02:33:14;;;;;;;11.60;8.23;;;6.20;99.90;;;;;;5011952;28;20097;-50
2023/04/08 02:36:01;;;;;;;10.20;7.75;;;6.20;99.90;;;;;;5013013;28;20525;-54
2023/04/08 02:38:50;;;;;;;11.45;7.60;;;6.20;99.90;;;;;;5012929;28;20085;-52
2023/04/08 02:41:36;;;;;;;10.38;7.60;;;6.30;99.90;;;;;;5012799;28;20380;-54
2023/04/08 02:44:22;;;;;;;10.50;7.43;;;6.10;99.90;;;;;;5011395;28;20041;-51
2023/04/08 02:47:08;;;;;;;10.68;7.50;;;6.10;99.90;;;;;;5010640;28;20034;-54
2023/04/08 02:49:54;;;;;;;9.40;7.22;;;6.20;99.90;;;;;;4993212;28;20057;-56
2023/04/08 02:52:40;;;;;;;10.10;6.68;;;6.20;99.90;;;;;;4980182;28;20483;-53
2023/04/08 02:55:26;;;;;;;9.43;6.60;;;6.30;99.90;;;;;;4998108;28;20144;-55
2023/04/08 02:58:12;;;;;;;9.23;6.70;;;6.30;99.90;;;;;;5012379;28;20126;-56
2023/04/08 03:00:57;;;;;;;9.20;6.95;;;6.30;99.90;;;;;;5012847;28;20026;-56
2023/04/08 03:03:43;;;;;;;10.05;7.32;;;6.20;99.90;;;;;;5012742;28;20049;-55
2023/04/08 03:06:31;;;;;;;10.50;8.15;;;6.20;99.90;;;;;;5013438;28;20795;-57
2023/04/08 03:09:16;;;;;;;12.70;7.93;;;6.10;99.90;;;;;;5017163;28;20049;-56
2023/04/08 03:12:03;;;;;;;10.90;7.57;;;6.10;99.90;;;;;;5044859;22;20051;-50
2023/04/08 03:14:49;;;;;;;11.27;8.10;;;6.10;99.90;;;;;;4952993;29;20019;-51
2023/04/08 03:17:35;;;;;;;11.27;7.57;;;6.10;99.90;;;;;;4969051;28;20393;-48
2023/04/08 03:20:21;;;;;;;14.32;8.25;;;6.10;99.90;;;;;;4972856;28;20106;-51
2023/04/08 03:23:07;;;;;;;11.90;8.30;;;6.10;99.90;;;;;;4954894;28;20032;-50
2023/04/08 03:25:53;;;;;;;12.68;8.40;;;6.10;99.90;;;;;;4956438;28;20459;-49
2023/04/08 03:28:39;;;;;;;13.70;8.30;;;6.20;99.90;;;;;;4973219;28;20393;-51
2023/04/08 03:31:25;;;;;;;16.70;9.50;;;6.20;99.90;;;;;;4973084;28;20054;-50
2023/04/08 03:34:11;;;;;;;14.73;9.63;;;6.20;99.90;;;;;;4972952;28;20085;-53
2023/04/08 03:36:57;;;;;;;12.98;9.65;;;6.10;99.90;;;;;;4972119;28;20090;-52
2023/04/08 03:39:43;;;;;;;16.15;10.07;;;6.10;99.90;;;;;;4985497;28;20038;-48
2023/04/08 03:42:29;;;;;;;13.73;9.88;;;6.10;99.90;;;;;;4975364;28;20030;-53
2023/04/08 03:45:15;;;;;;;14.65;9.70;;;6.10;99.90;;;;;;4981166;28;20042;-52
2023/04/08 03:48:01;;;;;;;14.57;9.77;;;6.20;99.90;;;;;;4978534;28;20027;-53
2023/04/08 03:50:47;;;;;;;14.25;9.75;;;6.20;99.90;;;;;;4977587;28;20035;-56
2023/04/08 03:53:32;;;;;;;17.80;10.63;;;6.20;99.90;;;;;;4953596;29;20047;-51
2023/04/08 03:56:18;;;;;;;16.17;10.88;;;6.10;99.90;;;;;;4957085;28;20053;-54
2023/04/08 03:59:04;;;;;;;16.00;10.90;;;6.10;99.90;;;;;;4976046;28;20030;-50
2023/04/08 04:01:52;;;;;;;17.50;11.40;;;6.10;99.90;;;;;;4974421;28;20114;-50
2023/04/08 04:04:38;;;;;;;15.90;10.60;;;6.00;99.90;;;;;;4974582;28;20023;-49
2023/04/08 04:07:24;;;;;;;21.02;12.23;;;6.10;99.90;;;;;;4974282;28;20038;-49
2023/04/08 04:10:10;;;;;;;19.92;11.95;;;6.00;99.90;;;;;;4974219;28;20403;-49
2023/04/08 04:12:56;;;;;;;19.33;12.93;;;6.00;99.90;;;;;;4975425;28;20468;-51
2023/04/08 04:15:42;;;;;;;20.90;12.38;;;5.90;99.90;;;;;;4975422;28;20396;-50
2023/04/08 04:18:28;;;;;;;20.48;12.35;;;5.80;99.90;;;;;;4975407;28;20030;-50
2023/04/08 04:21:14;;;;;;;19.95;12.32;;;5.90;99.90;;;;;;4975504;28;20066;-48
2023/04/08 04:24:00;;;;;;;19.80;12.10;;;5.80;99.90;;;;;;4957194;28;20054;-48
2023/04/08 04:26:46;;;;;;;20.88;12.00;;;6.00;99.90;;;;;;4957402;28;20102;-50
2023/04/08 04:29:32;;;;;;;15.60;10.75;;;6.00;99.90;;;;;;4975015;28;20031;-48
2023/04/08 04:32:18;;;;;;;15.82;10.73;;;6.00;99.90;;;;;;4974831;28;20484;-49
2023/04/08 04:35:04;;;;;;;15.15;10.02;;;6.00;99.90;;;;;;4975073;28;20042;-49
2023/04/08 04:37:50;;;;;;;15.02;10.10;;;6.00;99.90;;;;;;4973505;28;20031;-48
2023/04/08 04:40:38;;;;;;;14.38;9.90;;;6.10;99.90;;;;;;4975450;28;20031;-50
2023/04/08 04:43:24;;;;;;;13.80;9.65;;;6.00;99.90;;;;;;4976828;28;20031;-55
2023/04/08 04:46:10;;;;;;;15.70;10.15;;;6.00;99.90;;;;;;4975191;28;20035;-54
2023/04/08 04:48:56;;;;;;;13.63;8.93;;;6.00;99.90;;;;;;4974814;28;20031;-56
2023/04/08 04:51:42;;;;;;;13.23;10.15;;;6.10;99.90;;;;;;4975961;28;20030;-57
2023/04/08 04:54:28;;;;;;;16.45;10.02;;;6.10;99.90;;;;;;4974613;28;20139;-55
2023/04/08 04:57:13;;;;;;;11.50;8.85;;;6.10;99.90;;;;;;4974792;28;20488;-54
2023/04/08 04:59:59;;;;;;;13.98;9.68;;;6.20;99.90;;;;;;4973964;28;20145;-55
2023/04/08 05:02:45;;;;;;;14.00;9.05;;;6.10;99.90;;;;;;4974973;28;20046;-54
2023/04/08 05:05:31;;;;;;;13.40;9.68;;;6.10;99.90;;;;;;4975303;28;20109;-50
2023/04/08 05:08:17;;;;;;;14.30;9.13;;;6.10;99.90;;;;;;4974349;28;20522;-50
2023/04/08 05:11:03;;;;;;;12.45;8.52;;;6.10;99.90;;;;;;4973624;28;20039;-51
2023/04/08 05:13:49;;;;;;;12.15;8.52;;;6.10;99.90;;;;;;4974091;28;20153;-53
2023/04/08 05:16:35;;;;;;;13.60;9.57;;;6.10;99.90;;;;;;4973132;28;20031;-53
2023/04/08 05:19:21;;;;;;;18.35;11.10;;;6.10;99.90;;;;;;4975180;28;20458;-51
2023/04/08 05:22:07;;;;;;;12.55;8.68;;;6.10;99.90;;;;;;4955244;29;20042;-48
2023/04/08 05:24:53;;;;;;;10.65;8.13;;;6.20;99.90;;;;;;4958820;28;20117;-50
2023/04/08 05:27:39;;;;;;;10.68;8.23;;;6.20;99.90;;;;;;4973761;28;20034;-52
2023/04/08 05:30:25;;;;;;;11.88;8.93;;;6.30;99.90;;;;;;4973511;28;20042;-52
2023/04/08 05:33:11;;;;;;;12.75;8.48;;;6.20;99.90;;;;;;4972775;28;20031;-49
2023/04/08 05:35:57;;;;;;;13.55;8.98;;;6.10;99.90;;;;;;4972491;28;20411;-53
2023/04/08 05:38:43;;;;;;;16.42;9.35;;;6.10;99.90;;;;;;4974078;28;20039;-55
2023/04/08 05:41:29;;;;;;;13.15;9.25;;;6.20;99.90;;;;;;4972837;28;20037;-53
2023/04/08 05:44:15;;;;;;;12.23;9.38;;;6.30;99.90;;;;;;4975426;28;20039;-55
2023/04/08 05:47:01;;;;;;;11.57;9.80;;;6.20;99.90;;;;;;4958989;28;20034;-56
2023/04/08 05:49:47;;;;;;;11.77;8.70;;;6.10;99.90;;;;;;4972422;28;20380;-55
2023/04/08 05:52:33;;;;;;;13.02;9.18;;;6.10;99.90;;;;;;4955099;29;20032;-51
2023/04/08 05:55:19;;;;;;;13.85;10.50;;;6.10;99.90;;;;;;4958861;28;20059;-52
2023/04/08 05:58:06;;;;;;;15.73;9.63;;;6.30;99.90;;;;;;4972562;28;20027;-54
2023/04/08 06:00:52;;;;;;;14.68;10.00;;;6.30;99.90;;;;;;4975113;28;20054;-51
2023/04/08 06:03:37;;;;;;;12.45;9.57;;;6.20;99.90;;;;;;4973939;28;20023;-53
2023/04/08 06:06:24;;;;;;;13.88;9.52;;;6.10;99.90;;;;;;4972911;28;20039;-51
2023/04/08 06:09:10;;;;;;;16.08;10.10;;;6.20;99.90;;;;;;4972249;28;20026;-49
2023/04/08 06:11:56;;;;;;;12.27;9.18;;;6.30;99.90;;;;;;4972834;28;20043;-51
2023/04/08 06:14:42;;;;;;;12.02;9.35;;;6.30;99.90;;;;;;4972226;28;20026;-49
2023/04/08 06:17:28;;;;;;;13.55;8.98;;;6.30;99.90;;;;;;4972920;28;20023;-52
2023/04/08 06:20:14;;;;;;;13.80;10.02;;;6.30;99.90;;;;;;4973806;28;20027;-52
2023/04/08 06:23:01;;;;;;;14.05;9.50;;;6.20;99.90;;;;;;4955343;29;20083;-56
2023/04/08 06:25:47;;;;;;;14.27;10.07;;;6.20;99.90;;;;;;4965533;28;20034;-51
2023/04/08 06:28:32;;;;;;;13.88;9.23;;;6.20;99.90;;;;;;4974287;28;20057;-52
2023/04/08 06:31:19;;;;;;;12.88;9.27;;;6.10;99.90;;;;;;4973770;28;20499;-51
2023/04/08 06:34:05;;;;;;;13.90;9.88;;;6.20;99.90;;;;;;4972647;28;20491;-49
2023/04/08 06:36:50;;;;;;;14.38;9.80;;;6.20;99.90;;;;;;4972041;28;20496;-50
2023/04/08 06:39:36;;;;;;;14.63;10.80;;;6.10;99.90;;;;;;4972685;28;20066;-51
2023/04/08 06:42:22;;;;;;;13.60;10.23;;;6.10;99.90;;;;;;4972562;28;20041;-52
2023/04/08 06:45:09;;;;;;;14.00;10.07;;;6.10;99.90;;;;;;4972948;28;20504;-50
2023/04/08 06:47:55;;;;;;;14.65;9.75;;;6.10;99.90;;;;;;4971608;28;20055;-53
2023/04/08 06:50:41;;;;;;;12.60;9.45;;;6.20;99.90;;;;;;4972472;28;20074;-54
2023/04/08 06:53:32;;;;;;;12.57;8.98;;;6.20;99.90;;;;;;4972427;28;20029;-52
2023/04/08 06:56:20;;;;;;;15.23;10.70;;;6.20;99.90;;;;;;4972255;28;20533;-52
2023/04/08 06:59:06;;;;;;;14.68;9.23;;;6.30;99.90;;;;;;4957545;28;20041;-55
2023/04/08 07:01:51;;;;;;;11.27;9.02;;;6.30;99.90;;;;;;4972176;28;20042;-52
2023/04/08 07:04:37;;;;;;;11.43;8.45;;;6.40;99.90;;;;;;4971749;28;20026;-53
2023/04/08 07:07:23;;;;;;;11.27;8.27;;;6.40;99.90;;;;;;4972455;28;20039;-51
2023/04/08 07:10:09;;;;;;;11.18;7.72;;;6.40;99.90;;;;;;4971852;28;20037;-53
2023/04/08 07:12:55;;;;;;;11.30;8.27;;;6.40;99.90;;;;;;4972167;28;20039;-57
2023/04/08 07:15:41;;;;;;;13.68;8.93;;;6.30;99.90;;;;;;4972183;28;20435;-56
2023/04/08 07:18:27;;;;;;;13.35;9.85;;;6.30;99.90;;;;;;4972402;28;20447;-55
2023/04/08 07:21:13;;;;;;;9.73;8.07;;;6.40;99.90;;;;;;4971840;28;20034;-54
2023/04/08 07:23:59;;;;;;;10.02;7.97;;;6.40;99.90;;;;;;4971905;28;20034;-54
2023/04/08 07:26:45;;;;;;;12.73;8.38;;;6.50;99.90;;;;;;4972795;28;20035;-53
2023/04/08 07:29:31;;;;;;;11.50;7.53;;;6.50;99.90;;;;;;4975421;28;20035;-50
2023/04/08 07:32:17;;;;;;;10.55;8.15;;;6.50;99.90;;;;;;4952579;28;20098;-48
2023/04/08 07:35:04;;;;;;;10.80;8.38;;;6.50;99.90;;;;;;4961768;28;20023;-46
2023/04/08 07:37:50;;;;;;;9.82;7.68;;;6.40;99.90;;;;;;4977617;28;20022;-47
2023/04/08 07:40:36;;;;;;;9.45;7.35;;;6.60;99.90;;;;;;4963598;28;20096;-47
2023/04/08 07:43:22;;;;;;;10.35;8.30;;;6.70;99.90;;;;;;4978983;28;20523;-47
2023/04/08 07:46:08;;;;;;;9.55;7.82;;;6.60;99.90;;;;;;4978220;28;20419;-51
2023/04/08 07:48:54;;;;;;;9.63;7.78;;;6.60;99.90;;;;;;4978704;28;20045;-48
2023/04/08 07:51:40;;;;;;;10.95;8.10;;;6.60;99.90;;;;;;4977531;28;20027;-47
2023/04/08 07:54:26;;;;;;;13.20;8.75;;;6.60;99.90;;;;;;4978548;28;20027;-46
2023/04/08 07:57:12;;;;;;;10.77;8.93;;;6.80;99.90;;;;;;4977703;28;20027;-46
2023/04/08 07:59:58;;;;;;;13.80;10.57;;;6.80;99.90;;;;;;4978871;28;20134;-46
2023/04/08 08:02:44;;;;;;;16.33;11.07;;;6.90;99.90;;;;;;4963106;28;20058;-47
2023/04/08 08:05:30;;;;;;;13.82;10.38;;;6.90;99.90;;;;;;4963993;28;20181;-49
2023/04/08 08:08:16;;;;;;;15.95;10.68;;;6.90;99.90;;;;;;4951895;28;20026;-51
2023/04/08 08:11:02;;;;;;;16.25;11.45;;;7.00;99.90;;;;;;4977633;28;20023;-50
2023/04/08 08:13:47;;;;;;;17.38;12.05;;;7.10;99.90;;;;;;4962852;28;20403;-50
2023/04/08 08:16:33;;;;;;;17.58;13.27;;;7.20;99.90;;;;;;4962390;28;20031;-49
2023/04/08 08:19:20;;;;;;;23.35;14.15;;;7.30;99.90;;;;;;4978216;28;20045;-50
2023/04/08 08:22:06;;;;;;;17.98;13.38;;;7.30;99.90;;;;;;4977433;28;20157;-50
2023/04/08 08:24:58;;;;;;;21.63;15.65;;;7.30;99.90;;;;;;4963156;28;20027;-49
2023/04/08 08:27:44;;;;;;;20.95;15.18;;;7.20;99.90;;;;;;4978643;28;20034;-47
2023/04/08 08:30:30;;;;;;;26.13;15.60;;;7.20;99.90;;;;;;4978136;28;20122;-49
2023/04/08 08:33:16;;;;;;;27.52;16.40;;;7.30;99.90;;;;;;4969753;28;20023;-53
2023/04/08 08:36:04;;;;;;;27.00;17.83;;;7.30;99.90;;;;;;4977208;28;20034;-50
2023/04/08 08:38:52;;;;;;;25.95;17.90;;;7.30;99.90;;;;;;4975187;28;20031;-45
2023/04/08 08:41:38;;;;;;;28.70;18.95;;;7.20;99.90;;;;;;4975776;28;20538;-51
2023/04/08 08:44:24;;;;;;;29.40;18.35;;;7.20;99.90;;;;;;4967100;28;20042;-47
2023/04/08 08:47:10;;;;;;;26.67;18.48;;;7.10;99.90;;;;;;4973970;28;20464;-49
2023/04/08 08:49:56;;;;;;;30.25;21.10;;;7.10;99.90;;;;;;4958751;28;20093;-53
2023/04/08 08:52:50;;;;;;;31.23;21.00;;;7.10;99.90;;;;;;4971239;28;20105;-51
2023/04/08 08:55:38;;;;;;;34.28;21.20;;;7.10;99.90;;;;;;4974596;28;20022;-50
2023/04/08 08:58:27;;;;;;;35.20;21.48;;;7.10;99.90;;;;;;4973742;28;20571;-50
2023/04/08 09:01:40;;;;;;;34.55;22.58;;;7.10;99.90;;;;;;4974596;28;20066;-52
2023/04/08 09:04:26;;;;;;;37.22;21.52;;;7.10;99.90;;;;;;4960368;28;20038;-48
2023/04/08 09:07:12;;;;;;;37.03;23.63;;;7.10;99.90;;;;;;4972945;28;20033;-52
2023/04/08 09:09:58;;;;;;;39.17;25.13;;;7.20;99.90;;;;;;4973609;28;20443;-48
2023/04/08 09:12:55;;;;;;;36.00;22.02;;;7.30;99.90;;;;;;4953829;28;20484;-54
2023/04/08 09:16:02;;;;;;;41.55;25.67;;;7.30;99.90;;;;;;4959036;28;20027;-49
2023/04/08 09:18:48;;;;;;;39.72;26.25;;;7.40;99.90;;;;;;4959343;28;20031;-51
2023/04/08 09:21:34;;;;;;;41.67;26.67;;;7.50;99.90;;;;;;4973967;28;20035;-49
2023/04/08 09:24:29;;;;;;;39.88;25.80;;;7.50;99.90;;;;;;4973065;28;20031;-49
2023/04/08 09:27:15;;;;;;;41.70;26.65;;;7.60;99.90;;;;;;4973668;28;20026;-52
2023/04/08 09:30:14;;;;;;;40.47;27.15;;;7.60;99.90;;;;;;4970556;28;20037;-54
2023/04/08 09:33:03;;;;;;;47.70;31.20;;;7.70;99.90;;;;;;4972834;28;20026;-47
2023/04/08 09:35:49;;;;;;;44.78;29.02;;;7.90;99.90;;;;;;4956825;28;20100;-53
2023/04/08 09:38:35;;;;;;;42.70;27.35;;;8.00;99.90;;;;;;4968307;28;20033;-51
2023/04/08 09:41:23;;;;;;;40.08;26.65;;;8.10;99.90;;;;;;4968935;28;20023;-49
2023/04/08 09:44:10;;;;;;;45.83;29.17;;;7.90;99.90;;;;;;4970898;28;20026;-52
2023/04/08 09:47:07;;;;;;;42.17;29.25;;;8.00;99.90;;;;;;4972108;28;20488;-52
2023/04/08 09:49:59;;;;;;;43.67;28.95;;;8.10;99.90;;;;;;4972607;28;20035;-50
2023/04/08 09:52:49;;;;;;;48.90;32.28;;;8.10;99.90;;;;;;4973067;28;20098;-50
2023/04/08 09:55:36;;;;;;;49.85;31.50;;;8.30;99.90;;;;;;4953185;29;20466;-51
2023/04/08 09:58:28;;;;;;;37.33;27.90;;;8.50;99.90;;;;;;4963995;28;20023;-50
2023/04/08 10:01:15;;;;;;;39.72;26.70;;;8.70;99.90;;;;;;4973640;28;20099;-49
2023/04/08 10:04:05;;;;;;;39.22;27.08;;;8.90;99.90;;;;;;4972681;28;20027;-52
2023/04/08 10:06:58;;;;;;;41.03;27.55;;;9.10;99.90;;;;;;4972362;28;20561;-54
2023/04/08 10:09:45;;;;;;;38.75;27.17;;;9.30;99.90;;;;;;4971497;28;20114;-46
2023/04/08 10:12:31;;;;;;;38.58;27.65;;;9.20;99.90;;;;;;4946771;28;20129;-51
2023/04/08 10:15:30;;;;;;;37.10;27.05;;;9.10;99.90;;;;;;4972906;28;20046;-51
2023/04/08 10:18:29;;;;;;;35.42;24.77;;;9.10;99.90;;;;;;4972108;28;20023;-48
2023/04/08 10:21:47;;;;;;;36.83;26.75;;;9.00;99.90;;;;;;4971923;28;20027;-53
2023/04/08 10:24:33;;;;;;;38.90;25.40;;;9.10;99.90;;;;;;4972880;28;20023;-46
2023/04/08 10:27:41;;;;;;;35.58;26.48;;;9.30;99.90;;;;;;4972759;28;20121;-46
2023/04/08 10:30:27;;;;;;;35.47;26.15;;;9.40;99.90;;;;;;4972380;28;20065;-52
2023/04/08 10:33:17;;;;;;;39.58;26.83;;;9.40;99.90;;;;;;4972867;28;20647;-50
2023/04/08 10:36:13;;;;;;;38.38;26.73;;;9.40;99.90;;;;;;4971917;28;20094;-49
2023/04/08 10:39:00;;;;;;;37.53;26.70;;;9.40;99.90;;;;;;4972246;28;20427;-49
2023/04/08 10:41:47;;;;;;;31.80;25.00;;;9.40;99.90;;;;;;4955380;28;20023;-50
2023/04/08 10:44:33;;;;;;;37.50;27.38;;;9.30;99.90;;;;;;4972722;28;20119;-47
2023/04/08 10:47:25;;;;;;;38.13;27.98;;;9.20;99.90;;;;;;4972600;28;20035;-50
2023/04/08 10:50:18;;;;;;;34.88;26.58;;;9.20;99.90;;;;;;4971153;28;20094;-48
2023/04/08 10:53:04;;;;;;;36.88;26.67;;;9.30;99.90;;;;;;4971630;28;20069;-50
2023/04/08 10:55:51;;;;;;;34.17;25.92;;;9.40;99.90;;;;;;4971594;28;20034;-51
2023/04/08 10:58:50;;;;;;;38.25;27.50;;;9.40;99.90;;;;;;4972343;28;20035;-49
2023/04/08 11:01:40;;;;;;;39.95;28.02;;;9.50;99.90;;;;;;4971164;28;20041;-49
2023/04/08 11:04:26;;;;;;;35.17;26.35;;;9.40;99.90;;;;;;4971860;28;20027;-48
2023/04/08 11:07:13;;;;;;;37.03;26.88;;;9.60;99.90;;;;;;4958634;28;20386;-48
2023/04/08 11:10:02;;;;;;;37.08;26.55;;;9.60;99.90;;;;;;4951569;29;20068;-47
2023/04/08 11:12:49;;;;;;;37.55;25.75;;;9.60;99.90;;;;;;4952351;29;20031;-48
2023/04/08 11:15:35;;;;;;;36.13;25.20;;;9.60;99.90;;;;;;4947621;29;20024;-49
2023/04/08 11:18:22;;;;;;;31.77;23.77;;;9.60;99.90;;;;;;4949709;28;20030;-49
2023/04/08 11:21:11;;;;;;;38.55;27.77;;;9.70;99.90;;;;;;4971435;28;20508;-50
2023/04/08 11:23:57;;;;;;;34.30;24.83;;;9.90;99.90;;;;;;4971200;28;20031;-48
2023/04/08 11:26:44;;;;;;;31.38;23.63;;;10.00;99.90;;;;;;4971552;28;20031;-50
2023/04/08 11:29:30;;;;;;;40.58;29.52;;;10.10;99.90;;;;;;4972037;28;20034;-46
2023/04/08 11:32:16;;;;;;;33.08;23.02;;;10.20;99.90;;;;;;4971289;28;20027;-51
2023/04/08 11:35:06;;;;;;;32.13;23.75;;;10.40;99.90;;;;;;4960491;28;20034;-50
2023/04/08 11:37:52;;;;;;;31.77;21.95;;;10.40;99.90;;;;;;4970362;28;20090;-50
2023/04/08 11:40:38;;;;;;;29.13;22.52;;;10.30;99.90;;;;;;4952400;29;20035;-53
2023/04/08 11:43:25;;;;;;;31.63;23.65;;;10.30;99.90;;;;;;4969030;28;20050;-47
2023/04/08 11:46:11;;;;;;;30.45;23.10;;;10.30;99.90;;;;;;4970547;28;20499;-46
2023/04/08 11:49:06;;;;;;;29.65;22.20;;;10.10;99.90;;;;;;4957141;28;20077;-47
2023/04/08 11:51:58;;;;;;;32.40;23.00;;;10.20;99.90;;;;;;4971656;28;20027;-47
2023/04/08 11:54:43;;;;;;;27.90;21.23;;;10.40;99.90;;;;;;4952142;29;20043;-50
2023/04/08 11:57:31;;;;;;;30.30;22.48;;;10.40;99.90;;;;;;4962939;28;20027;-48
2023/04/08 12:00:18;;;;;;;28.77;21.50;;;10.50;99.90;;;;;;4970690;28;20035;-51
2023/04/08 12:03:05;;;;;;;28.20;21.05;;;10.50;99.90;;;;;;4971776;28;20031;-50
2023/04/08 12:05:51;;;;;;;28.25;21.42;;;10.50;99.90;;;;;;4971174;28;20035;-52
2023/04/08 12:08:37;;;;;;;28.17;21.65;;;10.40;99.90;;;;;;4969661;28;20098;-48
2023/04/08 12:11:23;;;;;;;29.27;21.63;;;10.30;99.90;;;;;;4966565;28;20035;-48
2023/04/08 12:14:09;;;;;;;32.22;22.95;;;10.30;99.90;;;;;;4970595;28;20019;-49
2023/04/08 12:16:55;;;;;;;29.98;22.38;;;10.30;99.90;;;;;;4965255;28;20043;-51
2023/04/08 12:19:41;;;;;;;25.23;20.67;;;10.20;99.90;;;;;;4971424;28;20521;-52
2023/04/08 12:22:27;;;;;;;30.55;21.60;;;10.30;99.90;;;;;;4968948;28;20389;-51
2023/04/08 12:25:13;;;;;;;29.40;20.15;;;10.40;99.90;;;;;;4974427;28;20027;-48
2023/04/08 12:27:58;;;;;;;27.52;21.63;;;10.30;99.90;;;;;;4974974;28;20120;-49
2023/04/08 12:30:45;;;;;;;28.10;21.25;;;10.40;99.90;;;;;;4974867;28;20027;-49
2023/04/08 12:33:31;;;;;;;24.85;20.48;;;10.40;99.90;;;;;;4975371;28;20027;-51
2023/04/08 12:36:17;;;;;;;26.15;19.65;;;10.40;99.90;;;;;;4975068;28;20495;-52
2023/04/08 12:39:03;;;;;;;25.30;18.83;;;10.50;99.90;;;;;;4974521;28;20060;-52
2023/04/08 12:41:49;;;;;;;24.60;18.58;;;10.60;99.90;;;;;;4974507;28;20503;-48
2023/04/08 12:44:35;;;;;;;24.90;18.23;;;10.70;99.90;;;;;;4974676;28;20443;-48
2023/04/08 12:47:21;;;;;;;25.45;19.08;;;10.80;99.90;;;;;;4954791;28;20067;-50
2023/04/08 12:50:08;;;;;;;23.38;17.67;;;10.90;99.90;;;;;;4952659;28;20038;-51
2023/04/08 12:52:54;;;;;;;25.30;19.13;;;11.00;99.90;;;;;;4981474;28;20027;-51
2023/04/08 12:55:41;;;;;;;25.52;19.17;;;10.90;99.90;;;;;;4975666;28;20023;-50
2023/04/08 12:58:27;;;;;;;29.38;20.27;;;11.00;99.90;;;;;;4960590;28;20027;-52
2023/04/08 13:01:13;;;;;;;25.80;19.20;;;10.80;99.90;;;;;;4956098;29;20035;-48
2023/04/08 13:03:59;;;;;;;26.92;19.48;;;10.60;99.90;;;;;;4966304;28;20023;-46
2023/04/08 13:06:45;;;;;;;26.75;19.10;;;10.50;99.90;;;;;;4972568;28;20051;-47
2023/04/08 13:09:30;;;;;;;25.73;18.85;;;10.70;99.90;;;;;;4974846;28;20068;-48
2023/04/08 13:12:16;;;;;;;26.38;18.73;;;10.70;99.90;;;;;;4974621;28;20110;-46
2023/04/08 13:15:03;;;;;;;28.95;20.17;;;10.60;99.90;;;;;;4974266;28;20027;-50
2023/04/08 13:17:49;;;;;;;28.50;20.77;;;10.60;99.90;;;;;;4954281;28;20082;-52
2023/04/08 13:20:35;;;;;;;31.63;22.15;;;10.60;99.90;;;;;;4955481;29;20070;-48
2023/04/08 13:23:21;;;;;;;29.67;21.02;;;10.70;99.90;;;;;;4955359;29;20031;-48
2023/04/08 13:26:07;;;;;;;30.40;22.40;;;10.50;99.90;;;;;;4955103;29;20059;-51
2023/04/08 13:28:53;;;;;;;27.75;19.27;;;10.70;99.90;;;;;;4941441;29;20460;-46
2023/04/08 13:31:39;;;;;;;28.00;19.52;;;10.60;99.90;;;;;;4940870;29;20058;-48
2023/04/08 13:34:25;;;;;;;36.13;24.15;;;10.60;99.90;;;;;;4948572;29;20039;-51
2023/04/08 13:37:11;;;;;;;27.13;18.70;;;10.50;99.90;;;;;;4969643;28;20467;-51
2023/04/08 13:39:57;;;;;;;27.52;18.20;;;10.40;99.90;;;;;;4976775;28;20030;-51
2023/04/08 13:42:43;;;;;;;26.77;19.70;;;10.30;99.90;;;;;;4974291;28;20041;-49
2023/04/08 13:45:29;;;;;;;26.95;20.38;;;10.30;99.90;;;;;;4974421;28;20027;-50
2023/04/08 13:48:15;;;;;;;27.98;19.85;;;10.20;99.90;;;;;;4972618;28;20042;-49
2023/04/08 13:51:01;;;;;;;30.77;21.35;;;10.10;99.90;;;;;;4973436;28;20117;-48
2023/04/08 13:53:47;;;;;;;28.85;21.38;;;10.20;99.90;;;;;;4953949;29;20567;-49
2023/04/08 13:56:33;;;;;;;32.22;21.98;;;10.30;99.90;;;;;;4953318;28;20224;-44
2023/04/08 13:59:19;;;;;;;29.90;22.08;;;10.20;99.90;;;;;;4953963;29;20711;-46
2023/04/08 14:02:05;;;;;;;31.10;21.98;;;10.20;99.90;;;;;;4953875;29;20510;-44
2023/04/08 14:04:52;;;;;;;34.08;23.23;;;10.40;99.90;;;;;;4957908;29;20093;-45
2023/04/08 14:07:38;;;;;;;32.10;21.15;;;10.40;99.90;;;;;;4959392;28;20110;-47
2023/04/08 14:10:24;;;;;;;34.63;23.90;;;10.40;99.90;;;;;;4957363;29;20035;-47
2023/04/08 14:13:10;;;;;;;32.40;22.77;;;10.50;99.90;;;;;;4955050;29;20036;-47
2023/04/08 14:15:57;;;;;;;35.08;23.27;;;10.60;99.90;;;;;;4962084;28;20062;-48
2023/04/08 14:18:43;;;;;;;32.28;21.65;;;10.60;99.90;;;;;;4972092;28;20102;-49
2023/04/08 14:21:30;;;;;;;34.40;23.25;;;10.40;99.90;;;;;;4965404;28;20031;-44
2023/04/08 14:24:16;;;;;;;35.10;23.95;;;10.40;99.90;;;;;;4952235;28;20058;-52